createdAt,value
2019-03-13T00:00:01.612Z,18.47
2019-03-13T00:05:02.215Z,18.47
2019-03-13T00:10:02.686Z,18.47
2019-03-13T00:15:03.350Z,18.46
2019-03-13T00:20:03.786Z,18.46
2019-03-13T00:25:04.228Z,18.45
2019-03-13T00:30:04.846Z,18.45
2019-03-13T00:35:05.299Z,18.46
2019-03-13T00:40:05.762Z,18.44
2019-03-13T00:45:06.402Z,18.45
2019-03-13T00:50:07.041Z,18.44
2019-03-13T00:55:07.492Z,18.45
2019-03-13T01:00:07.958Z,18.44
2019-03-13T01:05:08.400Z,18.44
2019-03-13T01:10:08.827Z,18.43
2019-03-13T01:15:09.255Z,18.42
2019-03-13T01:20:09.942Z,18.44
2019-03-13T01:25:10.765Z,18.44
2019-03-13T01:30:11.212Z,18.43
2019-03-13T01:35:11.642Z,18.42
2019-03-13T01:40:12.137Z,18.44
2019-03-13T01:45:12.757Z,18.43
2019-03-13T01:50:13.406Z,18.44
2019-03-13T01:55:13.867Z,18.46
2019-03-13T02:00:14.486Z,18.47
2019-03-13T02:05:15.188Z,18.47
2019-03-13T02:10:15.802Z,18.47
2019-03-13T02:15:16.234Z,18.46
2019-03-13T02:20:16.895Z,18.47
2019-03-13T02:25:17.438Z,18.47
2019-03-13T02:30:17.987Z,18.46
2019-03-13T02:35:18.624Z,18.47
2019-03-13T02:40:19.097Z,18.45
2019-03-13T02:45:19.943Z,18.45
2019-03-13T02:50:20.356Z,18.45
2019-03-13T02:55:21.024Z,18.46
2019-03-13T03:00:21.664Z,18.46
2019-03-13T03:05:22.317Z,18.45
2019-03-13T03:10:22.961Z,18.45
2019-03-13T03:15:23.408Z,18.45
2019-03-13T03:20:23.906Z,18.44
2019-03-13T03:25:24.291Z,18.45
2019-03-13T03:30:24.751Z,18.45
2019-03-13T03:35:25.382Z,18.45
2019-03-13T03:40:25.819Z,18.46
2019-03-13T03:45:26.358Z,18.50
2019-03-13T03:50:26.944Z,18.50
2019-03-13T03:55:27.383Z,18.49
2019-03-13T04:00:28.016Z,18.51
2019-03-13T04:05:28.446Z,18.51
2019-03-13T04:10:28.907Z,18.53
2019-03-13T04:15:29.366Z,18.54
2019-03-13T04:20:29.985Z,18.53
2019-03-13T04:25:30.431Z,18.53
2019-03-13T04:30:30.889Z,18.54
2019-03-13T04:35:31.324Z,18.57
2019-03-13T04:40:31.767Z,18.57
2019-03-13T04:45:32.268Z,18.60
2019-03-13T04:50:32.866Z,18.59
2019-03-13T04:55:33.326Z,18.60
2019-03-13T05:00:33.961Z,18.58
2019-03-13T05:05:34.603Z,18.59
2019-03-13T05:10:35.058Z,18.60
2019-03-13T05:15:35.571Z,18.62
2019-03-13T05:20:36.172Z,18.64
2019-03-13T05:25:36.791Z,18.64
2019-03-13T05:30:37.244Z,18.65
2019-03-13T05:35:38.277Z,18.65
2019-03-13T05:40:38.940Z,18.56
2019-03-13T05:45:39.412Z,18.57
2019-03-13T05:50:40.026Z,18.51
2019-03-13T05:55:40.465Z,18.52
2019-03-13T06:00:40.899Z,18.47
2019-03-13T06:05:41.359Z,18.44
2019-03-13T06:10:41.856Z,18.47
2019-03-13T06:15:42.277Z,18.51
2019-03-13T06:20:43.022Z,18.57
2019-03-13T06:25:43.459Z,18.52
2019-03-13T06:30:43.895Z,18.47
2019-03-13T06:35:44.346Z,18.44
2019-03-13T06:40:44.789Z,18.44
2019-03-13T06:45:45.225Z,18.48
2019-03-13T06:50:45.661Z,18.54
2019-03-13T06:55:46.098Z,18.47
2019-03-13T07:00:46.687Z,18.55
2019-03-13T07:05:47.205Z,18.50
2019-03-13T07:10:47.640Z,18.51
2019-03-13T07:15:48.113Z,18.51
2019-03-13T07:20:48.738Z,18.51
2019-03-13T07:25:49.156Z,18.52
2019-03-13T07:30:49.636Z,18.53
2019-03-13T07:35:50.067Z,18.53
2019-03-13T07:40:50.511Z,18.55
2019-03-13T07:45:51.406Z,18.58
2019-03-13T07:50:51.808Z,18.57
2019-03-13T07:55:52.183Z,18.57
2019-03-13T08:00:52.699Z,18.60
2019-03-13T08:05:53.153Z,18.59
2019-03-13T08:10:53.607Z,18.59
2019-03-13T08:15:54.444Z,18.59
2019-03-13T08:20:55.025Z,18.59
2019-03-13T08:25:55.532Z,18.58
2019-03-13T08:30:55.973Z,18.59
2019-03-13T08:35:56.983Z,18.59
2019-03-13T08:40:58.173Z,18.58
2019-03-13T08:45:58.727Z,18.59
2019-03-13T08:50:59.195Z,18.58
2019-03-13T08:55:59.823Z,18.60
2019-03-13T09:01:00.304Z,18.58
2019-03-13T09:06:01.146Z,18.60
2019-03-13T09:11:01.907Z,18.62
2019-03-13T09:16:02.419Z,18.61
2019-03-13T09:21:02.898Z,18.62
2019-03-13T09:26:03.731Z,18.63
2019-03-13T09:31:04.302Z,18.62
2019-03-13T09:36:04.811Z,18.61
2019-03-13T09:41:05.476Z,18.63
2019-03-13T09:46:06.060Z,18.63
2019-03-13T09:51:06.578Z,18.62
2019-03-13T09:56:07.274Z,18.64
2019-03-13T10:01:08.080Z,18.63
2019-03-13T10:06:08.487Z,18.65
2019-03-13T10:11:09.176Z,18.66
2019-03-13T10:16:09.592Z,18.66
2019-03-13T10:21:10.265Z,18.65
2019-03-13T10:26:11.133Z,18.63
2019-03-13T10:31:11.687Z,18.66
2019-03-13T10:36:12.366Z,18.66
2019-03-13T10:41:12.921Z,18.66
2019-03-13T10:46:13.496Z,18.68
2019-03-13T10:51:14.142Z,18.66
2019-03-13T10:56:14.594Z,18.68
2019-03-13T11:01:15.044Z,18.67
2019-03-13T11:06:15.471Z,18.65
2019-03-13T11:11:15.927Z,18.69
2019-03-13T11:16:16.335Z,18.68
2019-03-13T11:21:16.834Z,18.68
2019-03-13T11:26:17.243Z,18.69
2019-03-13T11:31:17.738Z,18.68
2019-03-13T11:36:18.347Z,18.67
2019-03-13T11:41:18.790Z,18.65
2019-03-13T11:46:19.232Z,18.68
2019-03-13T11:51:19.671Z,18.67
2019-03-13T11:56:20.121Z,18.69
2019-03-13T12:01:20.559Z,18.67
2019-03-13T12:06:21.016Z,18.68
2019-03-13T12:11:21.438Z,18.66
2019-03-13T12:16:21.881Z,18.69
2019-03-13T12:21:22.333Z,18.69
2019-03-13T12:26:22.765Z,18.71
2019-03-13T12:31:23.228Z,18.70
2019-03-13T12:36:23.676Z,18.68
2019-03-13T12:41:24.124Z,18.65
2019-03-13T12:46:24.779Z,18.67
2019-03-13T12:51:25.214Z,18.67
2019-03-13T12:56:25.636Z,18.69
2019-03-13T13:01:26.269Z,18.69
2019-03-13T13:06:26.777Z,18.68
2019-03-13T13:11:27.188Z,18.62
2019-03-13T13:16:27.620Z,18.65
2019-03-13T13:21:28.068Z,18.67
2019-03-13T13:26:28.522Z,18.68
2019-03-13T13:31:28.945Z,18.67
2019-03-13T13:36:29.419Z,18.66
2019-03-13T13:41:29.830Z,18.67
2019-03-13T13:46:30.294Z,18.68
2019-03-13T13:51:32.692Z,18.64
2019-03-13T13:56:31.407Z,18.67
2019-03-13T14:01:31.849Z,18.66
2019-03-13T14:06:32.278Z,18.66
2019-03-13T14:11:32.713Z,18.66
2019-03-13T14:16:33.137Z,18.66
2019-03-13T14:21:33.595Z,18.67
2019-03-13T14:26:34.042Z,18.64
2019-03-13T14:31:34.485Z,18.65
2019-03-13T14:36:34.948Z,18.66
2019-03-13T14:41:35.398Z,18.65
2019-03-13T14:46:35.813Z,18.66
2019-03-13T14:51:36.255Z,18.64
2019-03-13T14:56:36.629Z,18.64
2019-03-13T15:01:37.161Z,18.65
2019-03-13T15:06:38.899Z,18.67
2019-03-13T15:11:39.511Z,18.67
2019-03-13T15:16:40.111Z,18.67
2019-03-13T15:21:40.572Z,18.66
2019-03-13T15:26:41.038Z,18.66
2019-03-13T15:31:41.436Z,18.66
2019-03-13T15:36:41.921Z,18.66
2019-03-13T15:41:42.537Z,18.64
2019-03-13T15:46:42.988Z,18.59
2019-03-13T15:51:43.521Z,18.61
2019-03-13T15:56:43.975Z,18.63
2019-03-13T16:01:44.435Z,18.55
2019-03-13T16:06:44.858Z,18.60
2019-03-13T16:11:45.724Z,18.61
2019-03-13T16:16:46.146Z,18.61
2019-03-13T16:21:46.630Z,18.63
2019-03-13T16:26:47.060Z,18.61
2019-03-13T16:31:47.490Z,18.62
2019-03-13T16:36:47.941Z,18.60
2019-03-13T16:41:48.286Z,18.64
2019-03-13T16:46:48.833Z,18.60
2019-03-13T16:51:49.256Z,18.63
2019-03-13T16:56:49.691Z,18.63
2019-03-13T17:01:50.546Z,18.64
2019-03-13T17:06:50.998Z,18.61
2019-03-13T17:11:51.455Z,18.61
2019-03-13T17:16:51.885Z,18.61
2019-03-13T17:21:52.347Z,18.61
2019-03-13T17:26:52.803Z,18.62
2019-03-13T17:31:53.242Z,18.62
2019-03-13T17:36:53.681Z,18.62
2019-03-13T17:41:54.114Z,18.56
2019-03-13T17:46:54.567Z,18.55
2019-03-13T17:51:54.998Z,18.54
2019-03-13T17:56:55.454Z,18.60
2019-03-13T18:01:55.962Z,18.57
2019-03-13T18:06:56.533Z,18.57
2019-03-13T18:11:57.011Z,18.60
2019-03-13T18:16:57.636Z,18.58
2019-03-13T18:21:58.411Z,18.57
2019-03-13T18:26:58.928Z,18.57
2019-03-13T18:31:59.800Z,18.61
2019-03-13T18:37:00.228Z,18.62
2019-03-13T18:42:00.662Z,18.64
2019-03-13T18:47:01.103Z,18.63
2019-03-13T18:52:01.571Z,18.62
2019-03-13T18:57:02.000Z,18.63
2019-03-13T19:02:02.450Z,18.63
2019-03-13T19:07:02.899Z,18.56
2019-03-13T19:12:03.356Z,18.57
2019-03-13T19:17:03.793Z,18.64
2019-03-13T19:22:04.226Z,18.63
2019-03-13T19:27:04.665Z,18.65
2019-03-13T19:32:05.105Z,18.66
2019-03-13T19:37:05.551Z,18.65
2019-03-13T19:42:06.022Z,18.66
2019-03-13T19:47:06.431Z,18.66
2019-03-13T19:52:06.906Z,18.65
2019-03-13T19:57:07.534Z,18.64
2019-03-13T20:02:08.225Z,18.65
2019-03-13T20:07:08.834Z,18.64
2019-03-13T20:12:09.813Z,18.64
2019-03-13T20:17:10.318Z,18.65
2019-03-13T20:22:10.993Z,18.66
2019-03-13T20:27:11.598Z,18.64
2019-03-13T20:32:12.090Z,18.63
2019-03-13T20:37:12.965Z,18.65
2019-03-13T20:42:13.488Z,18.63
2019-03-13T20:47:13.927Z,18.63
2019-03-13T20:52:14.363Z,18.64
2019-03-13T20:57:15.013Z,18.65
2019-03-13T21:02:15.465Z,18.63
2019-03-13T21:07:15.916Z,18.63
2019-03-13T21:12:16.345Z,18.64
2019-03-13T21:17:16.792Z,18.59
2019-03-13T21:22:17.230Z,18.66
2019-03-13T21:27:17.675Z,18.60
2019-03-13T21:32:18.136Z,18.60
2019-03-13T21:37:18.570Z,18.62
2019-03-13T21:42:19.286Z,18.63
2019-03-13T21:47:19.850Z,18.61
2019-03-13T21:52:20.324Z,18.62
2019-03-13T21:57:20.686Z,18.60
2019-03-13T22:02:32.299Z,18.61
2019-03-13T22:07:21.634Z,18.58
2019-03-13T22:12:22.127Z,18.58
2019-03-13T22:17:22.509Z,18.61
2019-03-13T22:22:22.964Z,18.57
2019-03-13T22:27:23.413Z,18.59
2019-03-13T22:32:23.847Z,18.59
2019-03-13T22:37:24.296Z,18.54
2019-03-13T22:42:24.749Z,18.55
2019-03-13T22:47:25.207Z,18.52
2019-03-13T22:52:25.826Z,18.51
2019-03-13T22:57:26.279Z,18.51
2019-03-13T23:02:26.702Z,18.50
2019-03-13T23:07:27.126Z,18.51
2019-03-13T23:12:30.320Z,18.49
2019-03-13T23:17:28.858Z,18.50
2019-03-13T23:22:29.288Z,18.50
2019-03-13T23:27:29.735Z,18.50
2019-03-13T23:32:30.191Z,18.49
2019-03-13T23:37:30.701Z,18.49
2019-03-13T23:42:31.094Z,18.49
2019-03-13T23:47:31.527Z,18.49
2019-03-13T23:52:32.111Z,18.47
2019-03-13T23:57:32.607Z,18.48
